Time;durP1;ratioP1;P1;durP2;ratioP2;P2;SDS_P1;SDS_P2;PMS_P1;PMS_P2;Temp;Humidity;BMP_temperature;BMP_pressure;BME280_temperature;BME280_humidity;BME280_pressure;Samples;Min_cycle;Max_cycle;Signal;HPM_P1;HPM_P2
2023/02/15 00:01:52;;;;;;;5.43;1.25;;;-0.80;96.70;;;;;;4991859;28;20395;-77
2023/02/15 00:04:21;;;;;;;2.53;1.30;;;-0.80;96.80;;;;;;4991716;28;20030;-76
2023/02/15 00:06:47;;;;;;;4.22;1.73;;;-0.80;96.90;;;;;;4991704;28;20101;-76
2023/02/15 00:09:13;;;;;;;2.80;1.07;;;-0.80;97.00;;;;;;4992124;28;20432;-77
2023/02/15 00:11:39;;;;;;;10.43;1.85;;;-0.80;97.00;;;;;;4991802;28;20077;-76
2023/02/15 00:14:20;;;;;;;3.90;1.38;;;-0.80;97.10;;;;;;4993127;28;20567;-77
2023/02/15 00:16:47;;;;;;;6.93;2.33;;;-0.80;97.00;;;;;;4995291;28;20027;-76
2023/02/15 00:19:15;;;;;;;3.92;1.83;;;-0.80;96.90;;;;;;4995172;28;20081;-77
2023/02/15 00:21:41;;;;;;;2.50;1.33;;;-0.80;97.00;;;;;;4995006;28;20069;-79
2023/02/15 00:24:09;;;;;;;5.20;1.77;;;-0.80;96.90;;;;;;4993820;28;20519;-75
2023/02/15 00:26:37;;;;;;;3.55;1.30;;;-0.80;97.00;;;;;;4995650;28;20477;-78
2023/02/15 00:29:03;;;;;;;17.20;7.18;;;-0.80;97.00;;;;;;4994352;28;20088;-76
2023/02/15 00:31:30;;;;;;;4.43;1.33;;;-0.80;97.00;;;;;;4994206;28;20019;-73
2023/02/15 00:34:04;;;;;;;2.72;1.10;;;-0.80;96.90;;;;;;4994780;28;20026;-75
2023/02/15 00:36:30;;;;;;;5.28;2.03;;;-0.80;96.90;;;;;;4988935;28;20073;-75
2023/02/15 00:38:56;;;;;;;3.28;1.40;;;-0.70;96.90;;;;;;4993600;28;20022;-73
2023/02/15 00:41:22;;;;;;;7.10;2.95;;;-0.80;96.70;;;;;;4994299;28;20033;-75
2023/02/15 00:43:48;;;;;;;3.78;1.35;;;-0.80;96.70;;;;;;4994308;28;20034;-75
2023/02/15 00:46:14;;;;;;;4.78;1.63;;;-0.80;96.60;;;;;;4994539;28;20022;-75
2023/02/15 00:48:40;;;;;;;3.13;1.20;;;-0.80;96.70;;;;;;4994221;28;20033;-75
2023/02/15 00:51:05;;;;;;;4.78;1.73;;;-0.90;96.80;;;;;;4993139;28;20027;-76
2023/02/15 00:53:31;;;;;;;6.20;1.63;;;-0.80;96.80;;;;;;4992823;28;20116;-74
2023/02/15 00:55:57;;;;;;;4.00;1.88;;;-0.90;96.90;;;;;;4994183;28;20062;-73
2023/02/15 00:58:24;;;;;;;5.18;1.50;;;-0.80;97.00;;;;;;4994300;28;20072;-75
2023/02/15 01:00:51;;;;;;;3.85;2.00;;;-0.80;97.00;;;;;;4994461;28;20030;-75
2023/02/15 01:03:18;;;;;;;4.55;2.45;;;-0.90;96.90;;;;;;4994208;28;20122;-75
2023/02/15 01:05:44;;;;;;;3.13;1.83;;;-0.90;96.90;;;;;;4984226;28;20030;-74
2023/02/15 01:08:10;;;;;;;3.80;2.80;;;-0.90;96.90;;;;;;4994177;28;20478;-76
2023/02/15 01:10:39;;;;;;;3.45;1.73;;;-0.90;97.00;;;;;;4994190;28;20038;-76
2023/02/15 01:13:05;;;;;;;4.05;2.28;;;-0.90;96.90;;;;;;4991867;28;20030;-75
2023/02/15 01:15:35;;;;;;;9.07;2.65;;;-0.80;97.00;;;;;;4988609;28;20484;-74
2023/02/15 01:18:01;;;;;;;5.90;3.08;;;-0.90;96.60;;;;;;4994005;28;20038;-75
2023/02/15 01:20:34;;;;;;;5.03;2.13;;;-0.90;96.60;;;;;;4992599;28;20254;-76
2023/02/15 01:23:00;;;;;;;7.00;2.20;;;-0.90;96.70;;;;;;4993882;28;20026;-74
2023/02/15 01:25:26;;;;;;;5.88;1.77;;;-0.90;96.70;;;;;;4991673;28;20117;-74
2023/02/15 01:27:52;;;;;;;8.38;2.63;;;-0.90;96.90;;;;;;4993770;28;20098;-74
2023/02/15 01:30:18;;;;;;;6.28;2.95;;;-0.90;96.50;;;;;;4993929;28;20460;-76
2023/02/15 01:32:44;;;;;;;3.95;1.80;;;-0.90;96.50;;;;;;4993685;28;20033;-75
2023/02/15 01:35:10;;;;;;;3.05;1.45;;;-0.90;96.60;;;;;;4992514;28;20117;-74
2023/02/15 01:37:36;;;;;;;8.18;2.15;;;-0.90;96.60;;;;;;4993506;28;20081;-74
2023/02/15 01:40:06;;;;;;;3.00;1.30;;;-0.90;96.50;;;;;;4993732;28;20030;-75
2023/02/15 01:42:32;;;;;;;5.55;1.58;;;-0.90;96.40;;;;;;4991608;28;20015;-73
2023/02/15 01:45:17;;;;;;;8.13;1.90;;;-0.90;96.50;;;;;;4993565;28;20042;-75
2023/02/15 01:47:59;;;;;;;3.50;1.65;;;-0.90;96.40;;;;;;4993571;28;20383;-73
2023/02/15 01:50:33;;;;;;;5.32;1.77;;;-0.90;96.30;;;;;;4993396;28;20018;-73
2023/02/15 01:53:05;;;;;;;3.72;1.23;;;-0.90;96.30;;;;;;4993203;28;20388;-74
2023/02/15 01:55:42;;;;;;;2.83;1.63;;;-0.90;96.00;;;;;;4993361;28;20439;-74
2023/02/15 01:58:08;;;;;;;5.45;1.73;;;-0.90;96.20;;;;;;4992324;28;20023;-74
2023/02/15 02:00:35;;;;;;;2.47;1.25;;;-1.00;96.00;;;;;;4992064;28;20085;-74
2023/02/15 02:03:03;;;;;;;7.07;2.55;;;-1.00;95.90;;;;;;4993033;28;20084;-77
2023/02/15 02:05:29;;;;;;;3.80;1.67;;;-1.00;95.90;;;;;;4993292;28;20019;-76
2023/02/15 02:07:58;;;;;;;7.70;1.40;;;-1.00;95.60;;;;;;4991942;28;20062;-74
2023/02/15 02:10:25;;;;;;;3.58;1.58;;;-1.00;95.50;;;;;;4991884;28;20089;-75
2023/02/15 02:12:56;;;;;;;4.30;2.17;;;-1.00;95.50;;;;;;4991604;28;20052;-74
2023/02/15 02:15:37;;;;;;;4.82;1.42;;;-1.00;95.40;;;;;;4982609;28;20030;-73
2023/02/15 02:18:11;;;;;;;3.40;1.65;;;-1.00;95.40;;;;;;4992832;28;20109;-74
2023/02/15 02:20:43;;;;;;;6.00;1.75;;;-1.00;95.60;;;;;;4992652;28;20037;-74
2023/02/15 02:23:36;;;;;;;5.20;1.70;;;-1.00;95.50;;;;;;4992800;28;20376;-73
2023/02/15 02:26:26;;;;;;;4.03;1.67;;;-0.90;95.40;;;;;;4990161;28;20387;-74
2023/02/15 02:29:17;;;;;;;2.72;1.42;;;-1.00;95.30;;;;;;4991909;28;20380;-73
2023/02/15 02:31:49;;;;;;;10.98;1.67;;;-1.00;94.90;;;;;;4982265;28;20033;-74
2023/02/15 02:34:26;;;;;;;4.07;1.45;;;-1.00;94.90;;;;;;4992654;28;20060;-74
2023/02/15 02:37:13;;;;;;;2.95;1.20;;;-1.00;94.90;;;;;;4992259;28;20033;-75
2023/02/15 02:39:45;;;;;;;3.33;1.80;;;-1.10;94.90;;;;;;4992556;28;20031;-75
2023/02/15 02:42:32;;;;;;;4.43;1.88;;;-1.10;94.70;;;;;;4992479;28;20027;-74
2023/02/15 02:45:05;;;;;;;3.15;1.30;;;-1.10;94.60;;;;;;4992607;28;20053;-73
2023/02/15 02:47:41;;;;;;;6.10;1.67;;;-1.10;94.70;;;;;;4986673;28;20030;-73
2023/02/15 02:50:23;;;;;;;2.95;2.28;;;-1.10;94.60;;;;;;4992396;28;20031;-73
2023/02/15 02:52:54;;;;;;;2.63;1.55;;;-1.10;94.60;;;;;;4992267;28;20026;-74
2023/02/15 02:55:32;;;;;;;1.90;1.20;;;-1.10;94.70;;;;;;4992271;28;20034;-74
2023/02/15 02:58:01;;;;;;;5.03;1.42;;;-1.10;94.70;;;;;;4992267;28;20387;-74
2023/02/15 03:00:32;;;;;;;8.55;1.88;;;-1.00;94.40;;;;;;4992395;28;20108;-73
2023/02/15 03:03:15;;;;;;;4.50;1.80;;;-1.10;94.20;;;;;;4992178;28;20029;-75
2023/02/15 03:05:46;;;;;;;2.78;2.05;;;-1.10;94.40;;;;;;4991452;28;20035;-74
2023/02/15 03:08:21;;;;;;;4.43;1.30;;;-1.10;94.50;;;;;;4992285;28;20045;-75
2023/02/15 03:10:53;;;;;;;3.88;2.00;;;-1.10;94.40;;;;;;4992459;28;20054;-74
2023/02/15 03:13:19;;;;;;;10.20;2.03;;;-1.10;94.20;;;;;;4992283;28;20030;-74
2023/02/15 03:16:46;;;;;;;3.90;1.90;;;-1.00;94.30;;;;;;4990925;28;20026;-73
2023/02/15 03:18:52;;;;;;;6.65;2.90;;;-1.10;94.20;;;;;;4991160;28;20389;-74
2023/02/15 03:21:23;;;;;;;4.22;1.95;;;-1.00;93.90;;;;;;4990856;28;20019;-74
2023/02/15 03:23:58;;;;;;;10.15;2.25;;;-1.10;93.90;;;;;;4990427;28;20049;-73
2023/02/15 03:26:26;;;;;;;3.47;2.22;;;-1.10;94.10;;;;;;4992060;28;20097;-74
2023/02/15 03:28:55;;;;;;;6.88;1.88;;;-1.10;94.20;;;;;;4990715;28;20022;-75
2023/02/15 03:31:24;;;;;;;7.93;2.42;;;-1.10;94.20;;;;;;4992054;28;20105;-74
2023/02/15 03:33:58;;;;;;;9.15;3.08;;;-1.10;94.20;;;;;;4992073;28;20041;-76
2023/02/15 03:36:47;;;;;;;6.60;1.65;;;-1.10;93.90;;;;;;4990975;28;20029;-74
2023/02/15 03:39:33;;;;;;;7.28;2.50;;;-1.20;93.80;;;;;;4986459;28;20026;-74
2023/02/15 03:42:12;;;;;;;5.85;2.00;;;-1.30;94.00;;;;;;4991536;28;20108;-73
2023/02/15 03:45:17;;;;;;;7.68;2.03;;;-1.30;94.20;;;;;;4992004;28;20042;-75
2023/02/15 03:47:47;;;;;;;4.43;1.83;;;-1.40;94.10;;;;;;4992133;28;20038;-74
2023/02/15 03:53:03;;;;;;;11.02;2.42;;;-1.50;94.10;;;;;;4993881;28;20587;-75
2023/02/15 03:55:29;;;;;;;3.40;2.00;;;-1.50;94.50;;;;;;4995476;28;20117;-74
2023/02/15 04:03:51;;;;;;;8.60;3.13;;;-1.50;94.70;;;;;;4995259;28;20088;-75
2023/02/15 04:06:16;;;;;;;9.50;1.85;;;-1.50;94.80;;;;;;4994331;28;20027;-74
2023/02/15 04:11:26;;;;;;;4.60;1.65;;;-1.50;94.80;;;;;;4995386;28;20033;-75
2023/02/15 04:13:56;;;;;;;3.88;2.13;;;-1.50;94.70;;;;;;4995121;28;20468;-74
2023/02/15 04:16:25;;;;;;;5.22;2.45;;;-1.50;95.00;;;;;;4995058;28;20018;-74
2023/02/15 04:27:05;;;;;;;8.25;2.10;;;-1.60;94.30;;;;;;4994651;28;20110;-76
2023/02/15 04:29:31;;;;;;;6.50;2.20;;;-1.60;94.00;;;;;;4994877;28;20030;-75
2023/02/15 04:31:59;;;;;;;5.10;1.67;;;-1.60;94.10;;;;;;4995059;28;20031;-75
2023/02/15 04:34:26;;;;;;;4.35;1.88;;;-1.60;93.70;;;;;;4993510;28;20023;-74
2023/02/15 04:36:51;;;;;;;3.40;1.90;;;-1.60;93.60;;;;;;4995179;28;20025;-74
2023/02/15 04:39:18;;;;;;;6.38;1.98;;;-1.60;93.50;;;;;;4994673;28;20471;-74
2023/02/15 04:41:45;;;;;;;9.48;2.17;;;-1.60;93.50;;;;;;4973314;28;20119;-76
2023/02/15 04:44:11;;;;;;;4.85;1.88;;;-1.60;93.00;;;;;;4988529;28;20035;-74
2023/02/15 04:46:37;;;;;;;4.38;1.50;;;-1.60;93.00;;;;;;4994529;28;20078;-74
2023/02/15 04:49:03;;;;;;;5.53;2.65;;;-1.60;93.10;;;;;;4993102;28;20121;-75
2023/02/15 04:51:29;;;;;;;4.32;1.80;;;-1.60;93.10;;;;;;4994259;28;20097;-75
2023/02/15 04:53:56;;;;;;;5.85;3.25;;;-1.60;92.90;;;;;;4994485;28;20023;-73
2023/02/15 04:56:22;;;;;;;6.53;2.13;;;-1.70;92.80;;;;;;4993269;28;20069;-75
2023/02/15 04:58:48;;;;;;;4.50;1.73;;;-1.70;92.90;;;;;;4993746;28;20030;-75
2023/02/15 05:01:15;;;;;;;4.15;2.58;;;-1.70;92.90;;;;;;4994193;28;20407;-74
2023/02/15 05:03:41;;;;;;;12.60;3.13;;;-1.70;92.70;;;;;;4994090;28;20038;-74
2023/02/15 05:06:07;;;;;;;3.72;2.13;;;-1.70;92.80;;;;;;4994163;28;20027;-74
2023/02/15 05:08:32;;;;;;;8.60;3.03;;;-1.70;92.70;;;;;;4993997;28;20095;-74
2023/02/15 05:10:58;;;;;;;6.95;2.45;;;-1.70;92.90;;;;;;4994110;28;20527;-74
2023/02/15 05:13:24;;;;;;;4.80;2.53;;;-1.60;92.70;;;;;;4992950;28;20050;-76
2023/02/15 05:15:53;;;;;;;5.97;2.72;;;-1.70;92.70;;;;;;4993012;28;20101;-76
2023/02/15 05:18:21;;;;;;;5.82;2.92;;;-1.70;92.70;;;;;;4994230;28;20113;-76
2023/02/15 05:20:47;;;;;;;4.28;2.22;;;-1.60;93.00;;;;;;4992731;28;20503;-75
2023/02/15 05:23:13;;;;;;;10.98;2.90;;;-1.60;92.80;;;;;;4994033;28;20041;-76
2023/02/15 05:28:26;;;;;;;8.50;2.30;;;-1.60;92.70;;;;;;4994130;28;20049;-75
2023/02/15 05:31:04;;;;;;;11.98;2.53;;;-1.60;92.60;;;;;;4992219;28;20028;-73
2023/02/15 05:33:30;;;;;;;11.10;2.70;;;-1.60;92.70;;;;;;4993499;28;20112;-71
2023/02/15 05:35:56;;;;;;;4.00;1.92;;;-1.60;92.70;;;;;;4993500;28;20030;-74
2023/02/15 05:38:21;;;;;;;5.90;2.83;;;-1.60;92.60;;;;;;4993450;28;20412;-75
2023/02/15 05:40:47;;;;;;;7.13;2.70;;;-1.60;92.60;;;;;;4993189;28;20105;-74
2023/02/15 05:43:13;;;;;;;6.45;2.47;;;-1.60;92.20;;;;;;4993213;28;20357;-75
2023/02/15 05:45:39;;;;;;;9.05;2.92;;;-1.70;92.20;;;;;;4991056;28;20030;-76
2023/02/15 05:48:04;;;;;;;6.50;1.95;;;-1.70;92.20;;;;;;4992024;28;20027;-74
2023/02/15 05:50:30;;;;;;;10.35;2.92;;;-1.70;92.20;;;;;;4975830;28;20026;-75
2023/02/15 05:52:56;;;;;;;5.55;2.42;;;-1.70;92.00;;;;;;4991504;28;20026;-75
2023/02/15 05:55:22;;;;;;;6.68;3.53;;;-1.80;91.90;;;;;;4992715;28;20044;-74
2023/02/15 05:57:48;;;;;;;8.93;2.85;;;-1.80;92.40;;;;;;4992889;28;20037;-77
2023/02/15 06:00:15;;;;;;;4.30;2.33;;;-1.70;92.70;;;;;;4984960;28;20018;-75
2023/02/15 06:02:41;;;;;;;4.53;2.50;;;-1.70;92.10;;;;;;4992805;28;20105;-75
2023/02/15 06:05:07;;;;;;;6.25;2.42;;;-1.70;92.30;;;;;;4991722;28;20109;-74
2023/02/15 06:07:33;;;;;;;4.80;2.97;;;-1.70;92.10;;;;;;4993279;28;20018;-73
2023/02/15 06:10:00;;;;;;;8.30;3.03;;;-1.70;92.10;;;;;;4992812;28;20468;-75
2023/02/15 06:12:29;;;;;;;4.38;2.50;;;-1.70;92.00;;;;;;4992945;28;20030;-76
2023/02/15 06:14:55;;;;;;;6.43;3.00;;;-1.70;92.20;;;;;;4991489;28;20117;-75
2023/02/15 06:17:21;;;;;;;7.30;3.15;;;-1.70;92.10;;;;;;4991068;28;20734;-75
2023/02/15 06:19:47;;;;;;;6.37;3.13;;;-1.60;92.20;;;;;;4991749;28;20113;-74
2023/02/15 06:22:16;;;;;;;5.65;3.10;;;-1.60;91.70;;;;;;4992267;28;20106;-76
2023/02/15 06:24:42;;;;;;;9.43;2.97;;;-1.60;91.90;;;;;;4992494;28;20488;-76
2023/02/15 06:27:09;;;;;;;6.38;2.83;;;-1.50;92.20;;;;;;4989248;28;20027;-77
2023/02/15 06:29:35;;;;;;;6.72;3.92;;;-1.50;91.90;;;;;;4992615;28;20042;-76
2023/02/15 06:32:01;;;;;;;4.28;3.25;;;-1.50;91.90;;;;;;4992658;28;20023;-76
2023/02/15 06:34:27;;;;;;;7.43;3.85;;;-1.50;91.90;;;;;;4990961;28;20026;-75
2023/02/15 06:36:53;;;;;;;7.97;3.30;;;-1.50;91.70;;;;;;4990308;28;20023;-75
2023/02/15 06:39:19;;;;;;;6.28;3.55;;;-1.40;91.80;;;;;;4992353;28;20065;-77
2023/02/15 06:41:45;;;;;;;6.40;2.78;;;-1.50;91.60;;;;;;4992459;28;20168;-77
2023/02/15 06:44:10;;;;;;;12.75;3.60;;;-1.40;91.70;;;;;;4992282;28;20396;-75
2023/02/15 06:46:36;;;;;;;6.82;3.22;;;-1.40;91.60;;;;;;4992305;28;20085;-76
2023/02/15 06:49:02;;;;;;;9.38;3.97;;;-1.40;91.30;;;;;;4992437;28;20054;-74
2023/02/15 06:51:28;;;;;;;7.53;3.58;;;-1.50;91.20;;;;;;4991841;28;20451;-75
2023/02/15 06:53:54;;;;;;;7.20;3.35;;;-1.50;91.30;;;;;;4991018;28;20133;-75
2023/02/15 06:56:19;;;;;;;7.55;3.03;;;-1.50;91.60;;;;;;4992154;28;20057;-76
2023/02/15 06:58:45;;;;;;;8.27;3.45;;;-1.50;91.40;;;;;;4992214;28;20773;-76
2023/02/15 07:01:11;;;;;;;6.07;2.53;;;-1.50;91.50;;;;;;4992130;28;20101;-75
2023/02/15 07:03:37;;;;;;;7.00;3.08;;;-1.50;91.50;;;;;;4991953;28;20408;-77
2023/02/15 07:06:07;;;;;;;10.30;4.18;;;-1.50;91.20;;;;;;4991799;28;20037;-76
2023/02/15 07:08:34;;;;;;;2.92;1.98;;;-1.60;91.30;;;;;;4990847;28;20161;-76
2023/02/15 07:13:46;;;;;;;8.18;4.53;;;-1.60;91.40;;;;;;4989601;28;20495;-74
2023/02/15 07:16:12;;;;;;;4.82;3.30;;;-1.70;91.40;;;;;;4989211;28;20057;-76
2023/02/15 07:18:38;;;;;;;10.48;2.28;;;-1.70;91.80;;;;;;4992003;28;20031;-76
2023/02/15 07:21:07;;;;;;;6.55;2.55;;;-1.70;91.80;;;;;;4991811;28;20065;-76
2023/02/15 07:23:37;;;;;;;4.72;2.45;;;-1.80;91.90;;;;;;4995652;28;20057;-76
2023/02/15 07:26:04;;;;;;;6.53;3.35;;;-1.80;92.50;;;;;;4995963;28;20025;-75
2023/02/15 07:28:31;;;;;;;17.23;2.80;;;-1.80;92.90;;;;;;4995933;28;20721;-77
2023/02/15 07:30:57;;;;;;;5.53;2.90;;;-1.90;93.10;;;;;;4995925;28;20033;-74
2023/02/15 07:33:23;;;;;;;6.35;3.50;;;-1.90;93.40;;;;;;4994836;28;20026;-75
2023/02/15 07:35:50;;;;;;;6.68;2.78;;;-1.80;93.50;;;;;;4994346;28;20037;-77
2023/02/15 07:38:16;;;;;;;7.40;3.05;;;-1.70;93.40;;;;;;4994409;28;20027;-74
2023/02/15 07:40:42;;;;;;;7.50;4.00;;;-1.70;93.30;;;;;;4995736;28;20408;-77
2023/02/15 07:43:08;;;;;;;6.65;3.60;;;-1.60;93.50;;;;;;4995238;28;20022;-76
2023/02/15 07:45:34;;;;;;;5.03;3.15;;;-1.50;93.40;;;;;;4995384;28;20030;-76
2023/02/15 07:48:07;;;;;;;10.82;4.32;;;-1.40;93.40;;;;;;4995540;28;20026;-76
2023/02/15 07:50:33;;;;;;;8.88;3.08;;;-1.30;93.30;;;;;;4995278;28;20030;-74
2023/02/15 07:53:02;;;;;;;10.57;3.95;;;-1.20;93.00;;;;;;4995610;28;20480;-75
2023/02/15 07:55:28;;;;;;;8.30;3.38;;;-1.10;92.80;;;;;;4994088;28;20038;-77
2023/02/15 07:57:54;;;;;;;9.93;3.78;;;-1.10;92.50;;;;;;4995440;28;20033;-76
2023/02/15 08:00:29;;;;;;;8.38;4.18;;;-1.10;92.40;;;;;;4995475;28;20419;-75
2023/02/15 08:03:14;;;;;;;9.50;3.35;;;-1.00;92.30;;;;;;4995317;28;20021;-76
2023/02/15 08:05:41;;;;;;;8.80;3.58;;;-1.00;91.60;;;;;;4994921;28;20096;-77
2023/02/15 08:08:29;;;;;;;11.40;3.78;;;-1.10;91.70;;;;;;4995033;28;20023;-77
2023/02/15 08:11:26;;;;;;;4.53;2.80;;;-1.00;91.70;;;;;;4995086;28;20408;-76
2023/02/15 08:14:11;;;;;;;6.95;3.22;;;-1.10;91.80;;;;;;4993540;28;20027;-78
2023/02/15 08:17:04;;;;;;;5.75;4.13;;;-1.00;91.80;;;;;;4995125;28;20034;-76
2023/02/15 08:19:32;;;;;;;6.53;3.15;;;-0.90;91.60;;;;;;4993979;28;20097;-76
2023/02/15 08:22:12;;;;;;;7.13;4.30;;;-0.90;91.40;;;;;;4995066;28;20023;-76
2023/02/15 08:24:38;;;;;;;9.32;3.58;;;-0.90;91.30;;;;;;4993371;28;20132;-76
2023/02/15 08:27:06;;;;;;;4.53;2.78;;;-0.90;91.00;;;;;;4992401;28;20019;-75
2023/02/15 08:29:33;;;;;;;6.63;2.83;;;-0.90;91.30;;;;;;4994636;28;20029;-76
2023/02/15 08:32:02;;;;;;;5.97;3.05;;;-0.90;91.00;;;;;;4993658;28;20031;-77
2023/02/15 08:34:30;;;;;;;8.02;3.35;;;-0.80;90.90;;;;;;4992423;28;20530;-75
2023/02/15 08:36:56;;;;;;;5.22;3.53;;;-0.90;90.80;;;;;;4994872;28;20026;-76
2023/02/15 08:39:22;;;;;;;6.78;3.53;;;-1.00;90.70;;;;;;4994551;28;20026;-77
2023/02/15 08:41:48;;;;;;;7.70;3.40;;;-1.10;90.90;;;;;;4992271;28;20113;-79
2023/02/15 08:44:19;;;;;;;6.40;3.78;;;-1.10;91.00;;;;;;4994705;28;20039;-79
2023/02/15 08:46:48;;;;;;;7.72;2.60;;;-1.20;91.00;;;;;;4994781;28;20483;-77
2023/02/15 08:49:18;;;;;;;6.40;3.38;;;-1.30;90.90;;;;;;4994672;28;20053;-77
2023/02/15 08:51:44;;;;;;;6.43;3.13;;;-1.30;91.00;;;;;;4994547;28;20403;-78
2023/02/15 08:54:13;;;;;;;8.20;2.20;;;-1.30;91.00;;;;;;4986515;28;20022;-78
2023/02/15 08:56:42;;;;;;;4.05;3.17;;;-1.30;91.30;;;;;;4994205;28;20054;-77
2023/02/15 08:59:13;;;;;;;3.97;2.70;;;-1.30;91.40;;;;;;4993009;28;20388;-78
2023/02/15 09:01:39;;;;;;;7.68;3.78;;;-1.20;91.40;;;;;;4993954;28;20450;-77
2023/02/15 09:04:09;;;;;;;6.82;3.63;;;-1.10;91.50;;;;;;4993947;28;20117;-78
2023/02/15 09:06:37;;;;;;;7.18;3.60;;;-1.00;91.30;;;;;;4992458;28;20058;-79
2023/02/15 09:09:07;;;;;;;3.78;2.33;;;-1.10;90.90;;;;;;4991588;28;20022;-78
2023/02/15 09:11:36;;;;;;;4.68;3.50;;;-1.00;91.10;;;;;;4993793;28;20018;-78
2023/02/15 09:14:09;;;;;;;6.10;3.42;;;-1.00;91.00;;;;;;4994302;28;20413;-79
2023/02/15 09:16:37;;;;;;;5.15;3.63;;;-1.00;91.00;;;;;;4994120;28;20018;-81
2023/02/15 09:19:06;;;;;;;3.58;2.50;;;-1.00;91.40;;;;;;4994014;28;20053;-80
2023/02/15 09:21:35;;;;;;;3.42;2.00;;;-0.90;91.10;;;;;;4992943;28;20425;-79
2023/02/15 09:24:04;;;;;;;6.65;2.80;;;-0.90;90.90;;;;;;4993931;28;20042;-79
2023/02/15 09:26:31;;;;;;;6.78;2.92;;;-0.90;90.70;;;;;;4993717;28;20015;-79
2023/02/15 09:29:00;;;;;;;4.55;2.05;;;-0.90;90.90;;;;;;4993691;28;20031;-77
2023/02/15 09:31:29;;;;;;;6.47;3.08;;;-0.90;90.80;;;;;;4994172;28;20027;-78
2023/02/15 09:33:55;;;;;;;5.25;2.67;;;-0.90;90.70;;;;;;4992623;28;20122;-78
2023/02/15 09:36:34;;;;;;;5.22;2.53;;;-0.80;90.80;;;;;;4993648;28;20380;-78
2023/02/15 09:39:15;;;;;;;4.88;2.60;;;-0.70;90.80;;;;;;4992433;28;20412;-78
2023/02/15 09:41:50;;;;;;;14.30;4.00;;;-0.70;90.70;;;;;;4993557;28;20373;-78
2023/02/15 09:44:34;;;;;;;8.93;3.42;;;-0.80;90.80;;;;;;4988000;28;20049;-78
2023/02/15 09:47:32;;;;;;;4.85;2.75;;;-0.80;91.10;;;;;;4993376;28;20037;-78
2023/02/15 09:50:14;;;;;;;5.22;2.20;;;-0.80;90.80;;;;;;4993365;28;20033;-77
2023/02/15 09:52:55;;;;;;;7.93;3.50;;;-0.80;90.70;;;;;;4993276;28;20093;-75
2023/02/15 09:55:33;;;;;;;4.82;2.25;;;-0.80;90.70;;;;;;4993321;28;20121;-79
2023/02/15 09:58:18;;;;;;;5.80;2.90;;;-0.80;90.80;;;;;;4988366;28;20034;-81
2023/02/15 10:01:20;;;;;;;7.43;2.83;;;-0.90;90.40;;;;;;4992886;28;20102;-79
2023/02/15 10:04:14;;;;;;;6.93;3.30;;;-0.90;90.70;;;;;;4991080;28;20018;-76
2023/02/15 10:06:54;;;;;;;8.90;2.50;;;-0.80;90.80;;;;;;4991278;28;20026;-76
2023/02/15 10:09:20;;;;;;;4.38;2.50;;;-0.80;90.80;;;;;;4992730;28;20022;-77
2023/02/15 10:11:51;;;;;;;4.80;2.47;;;-0.80;90.80;;;;;;4992825;28;20596;-77
2023/02/15 10:14:29;;;;;;;7.55;2.70;;;-0.90;90.90;;;;;;4992633;28;20049;-78
2023/02/15 10:17:15;;;;;;;6.80;2.45;;;-0.80;90.90;;;;;;4993023;28;20022;-78
2023/02/15 10:20:18;;;;;;;6.82;3.08;;;-0.90;91.00;;;;;;4992446;28;20038;-78
2023/02/15 10:22:44;;;;;;;3.75;2.08;;;-0.90;90.90;;;;;;4980465;28;20087;-76
2023/02/15 10:25:23;;;;;;;7.85;2.83;;;-1.00;91.10;;;;;;4992055;28;20034;-76
2023/02/15 10:27:50;;;;;;;6.95;4.18;;;-1.00;91.20;;;;;;4990211;28;20507;-77
2023/02/15 10:30:27;;;;;;;8.48;4.57;;;-1.00;91.40;;;;;;4992378;28;20474;-77
2023/02/15 10:33:01;;;;;;;5.55;2.85;;;-1.00;91.60;;;;;;4992502;28;20101;-77
2023/02/15 10:35:36;;;;;;;5.05;2.67;;;-0.90;91.60;;;;;;4992448;28;20026;-76
2023/02/15 10:38:14;;;;;;;9.13;2.97;;;-0.90;91.40;;;;;;4992456;28;20125;-76
2023/02/15 10:40:51;;;;;;;2.92;2.22;;;-1.00;91.20;;;;;;4988299;28;20029;-77
2023/02/15 10:43:27;;;;;;;6.63;2.70;;;-1.00;91.20;;;;;;4991014;28;20442;-78
2023/02/15 10:46:15;;;;;;;6.28;3.05;;;-1.10;91.40;;;;;;4992151;28;20050;-77
2023/02/15 10:49:05;;;;;;;4.82;2.65;;;-1.10;91.40;;;;;;4992396;28;20361;-77
2023/02/15 10:51:37;;;;;;;6.50;3.10;;;-1.20;91.50;;;;;;4990478;28;20092;-78
2023/02/15 10:54:18;;;;;;;7.30;3.42;;;-1.10;91.40;;;;;;4992393;28;20097;-76
2023/02/15 10:56:53;;;;;;;6.75;2.30;;;-1.00;91.50;;;;;;4991653;28;20046;-76
2023/02/15 10:59:55;;;;;;;3.35;2.35;;;-0.90;91.30;;;;;;4992612;28;20388;-77
2023/02/15 11:02:52;;;;;;;3.72;1.80;;;-0.90;91.00;;;;;;4990339;28;20080;-79
2023/02/15 11:05:48;;;;;;;6.68;2.75;;;-0.90;90.80;;;;;;4979959;28;20049;-79
2023/02/15 11:08:19;;;;;;;3.42;2.17;;;-0.80;90.80;;;;;;4962246;28;20110;-77
2023/02/15 11:11:01;;;;;;;4.13;1.65;;;-0.90;90.80;;;;;;4992069;28;20027;-78
2023/02/15 11:13:33;;;;;;;1.92;1.60;;;-0.90;90.80;;;;;;4992297;28;20022;-79
2023/02/15 11:16:29;;;;;;;2.45;1.70;;;-1.00;90.70;;;;;;4990832;28;20019;-78
2023/02/15 11:19:09;;;;;;;3.10;2.00;;;-1.00;91.00;;;;;;4990917;28;20026;-79
2023/02/15 11:21:43;;;;;;;2.10;1.20;;;-0.90;91.00;;;;;;4992431;28;20034;-79
2023/02/15 11:24:18;;;;;;;3.58;1.50;;;-1.00;90.40;;;;;;4992151;28;20030;-79
2023/02/15 11:27:16;;;;;;;2.90;1.33;;;-1.00;90.60;;;;;;4990999;28;20461;-79
2023/02/15 11:29:54;;;;;;;5.20;2.53;;;-1.00;90.70;;;;;;4991260;28;20022;-78
2023/02/15 11:32:39;;;;;;;3.35;1.63;;;-1.10;90.90;;;;;;4992016;28;20015;-78
2023/02/15 11:35:16;;;;;;;2.33;1.50;;;-1.00;90.90;;;;;;4990313;28;20054;-79
2023/02/15 11:37:42;;;;;;;3.03;2.05;;;-1.10;91.10;;;;;;4992170;28;20058;-80
2023/02/15 11:40:27;;;;;;;4.38;1.85;;;-1.10;91.20;;;;;;4990838;28;20046;-79
2023/02/15 11:43:07;;;;;;;7.97;1.85;;;-1.10;91.20;;;;;;4988712;28;20089;-78
2023/02/15 11:45:35;;;;;;;5.20;1.30;;;-1.10;91.30;;;;;;4991727;28;20038;-77
2023/02/15 11:48:08;;;;;;;3.20;1.52;;;-1.10;91.30;;;;;;4991541;28;20419;-78
2023/02/15 11:50:34;;;;;;;3.47;1.25;;;-1.20;91.20;;;;;;4991537;28;20065;-76
2023/02/15 11:53:04;;;;;;;4.72;2.60;;;-1.20;91.20;;;;;;4991457;28;20042;-78
2023/02/15 11:55:30;;;;;;;5.13;2.00;;;-1.20;91.30;;;;;;4991593;28;20049;-77
2023/02/15 11:58:22;;;;;;;3.80;2.15;;;-1.20;91.30;;;;;;4991266;28;20034;-77
2023/02/15 12:00:52;;;;;;;2.40;1.95;;;-1.10;91.40;;;;;;4985775;28;20041;-77
2023/02/15 12:03:21;;;;;;;5.75;2.08;;;-1.10;91.40;;;;;;4991331;28;20085;-78
2023/02/15 12:05:53;;;;;;;6.30;1.70;;;-1.10;91.30;;;;;;4990975;28;20097;-77
2023/02/15 12:08:23;;;;;;;3.90;2.28;;;-1.20;91.30;;;;;;4990021;28;20023;-78
2023/02/15 12:11:07;;;;;;;2.40;1.95;;;-1.20;91.10;;;;;;4995380;28;20038;-76
2023/02/15 12:13:33;;;;;;;4.63;1.55;;;-1.20;91.40;;;;;;4995506;28;20026;-79
2023/02/15 12:16:05;;;;;;;2.50;1.52;;;-1.20;91.30;;;;;;4995496;28;20046;-77
2023/02/15 12:18:40;;;;;;;1.63;1.08;;;-1.20;91.10;;;;;;4995522;28;20446;-77
2023/02/15 12:21:27;;;;;;;2.83;1.83;;;-1.30;91.40;;;;;;4994952;28;20026;-77
2023/02/15 12:23:57;;;;;;;5.55;1.63;;;-1.20;91.30;;;;;;4995494;28;20030;-79
2023/02/15 12:26:28;;;;;;;7.28;4.07;;;-1.10;91.20;;;;;;4993408;28;20105;-78
2023/02/15 12:28:58;;;;;;;4.82;2.50;;;-1.10;91.20;;;;;;4994503;28;20026;-79
2023/02/15 12:31:31;;;;;;;6.22;2.65;;;-1.10;91.20;;;;;;4995543;28;20387;-80
2023/02/15 12:33:59;;;;;;;3.20;2.28;;;-1.10;91.20;;;;;;4993910;28;20518;-81
2023/02/15 12:36:29;;;;;;;3.75;2.72;;;-1.10;91.20;;;;;;4995028;28;20030;-78
2023/02/15 12:39:13;;;;;;;4.18;2.38;;;-1.10;91.20;;;;;;4993669;28;20027;-80
2023/02/15 12:41:55;;;;;;;2.95;1.30;;;-1.10;91.10;;;;;;4995032;28;20030;-80
2023/02/15 12:44:26;;;;;;;2.22;1.52;;;-1.00;90.70;;;;;;4994875;28;20088;-80
2023/02/15 12:47:16;;;;;;;6.70;1.40;;;-1.00;90.40;;;;;;4994873;28;20065;-76
2023/02/15 12:49:43;;;;;;;2.70;1.00;;;-1.10;90.00;;;;;;4995208;28;20365;-78
2023/02/15 12:52:19;;;;;;;1.83;1.15;;;-1.10;89.60;;;;;;4993271;28;20035;-78
2023/02/15 12:54:50;;;;;;;1.50;1.00;;;-1.20;89.50;;;;;;4994493;28;20026;-78
2023/02/15 12:57:22;;;;;;;3.25;2.60;;;-1.20;89.20;;;;;;4993193;28;20280;-76
2023/02/15 12:59:57;;;;;;;3.20;1.58;;;-1.20;89.50;;;;;;4994552;28;20101;-77
2023/02/15 13:02:28;;;;;;;3.78;1.40;;;-1.20;89.70;;;;;;4994373;28;20014;-78
2023/02/15 13:04:56;;;;;;;2.15;1.27;;;-1.20;89.90;;;;;;4994232;28;20049;-80
2023/02/15 13:07:23;;;;;;;2.08;1.58;;;-1.20;89.80;;;;;;4993180;28;20380;-80
2023/02/15 13:09:50;;;;;;;6.18;2.10;;;-1.10;89.30;;;;;;4994223;28;20054;-79
2023/02/15 13:12:26;;;;;;;1.70;1.45;;;-1.20;89.40;;;;;;4994203;28;20088;-78
2023/02/15 13:14:54;;;;;;;2.95;1.60;;;-1.10;89.70;;;;;;4993047;28;20022;-80
2023/02/15 13:17:31;;;;;;;1.45;1.15;;;-1.20;89.20;;;;;;4994149;28;20025;-79
2023/02/15 13:20:30;;;;;;;2.22;1.33;;;-1.20;88.50;;;;;;4993912;28;20030;-78
2023/02/15 13:23:13;;;;;;;1.75;1.13;;;-1.30;88.90;;;;;;4971801;28;20026;-78
2023/02/15 13:25:50;;;;;;;1.45;1.13;;;-1.40;89.40;;;;;;4993907;28;20381;-79
2023/02/15 13:28:18;;;;;;;3.72;1.40;;;-1.50;89.80;;;;;;4994100;28;20105;-78
2023/02/15 13:30:47;;;;;;;1.85;1.65;;;-1.50;90.10;;;;;;4993929;28;20034;-78
2023/02/15 13:33:12;;;;;;;6.93;1.90;;;-1.50;90.10;;;;;;4994019;28;20018;-78
2023/02/15 13:35:45;;;;;;;3.97;1.55;;;-1.40;90.20;;;;;;4992440;28;20532;-78